Tiempo atmosférico en la estación meteorológica de Águilas, Murcia (26 m.)



Fecha
DESCASC
Temp. máxima en grados centígrados (hora)
DESCASC
Temp. mínima en grados centígrados (hora)
DESCASC
Temp. media en grados centígrados
DESCASC
Racha de viento máxima en m/sg (hora)
DESCASC
Velocidad máxima media en intervalos de 10 minutos(hora)
DESCASC
Precipitaciones diarias en mm
DESCASC
Precipitaciones de 00:00 a 06:00 en mm
DESCASC
Precipitaciones de 06:00 a 12:00 en mm
DESCASC
Precipitaciones de 12:00 a 18:00 en mm
DESCASC
Precipitaciones de 18:00 a 24:00 en mm
DESCASC
20-09-2018 28.5 (10:50) 23.5 (03:30) 26 6.67 (13:30) 3.33 (13:10) 0 0 0 0 0
19-09-2018 28.3 (14:10) 23.6 (08:10) 25.9 6.39 (13:50) 3.89 (13:20) 0 0 0 0 0
18-09-2018 29.7 (14:30) 22.6 (06:20) 26.2 6.11 (12:00) 3.89 (12:10) 0 0 0 0 0
17-09-2018 29.2 (16:00) 23.7 (07:30) 26.5 10 (13:40) 5.83 (14:10) 0 0 0 0 0
16-09-2018 29.8 (16:20) 22.6 (00:00) 26.2 9.17 (13:10) 6.11 (13:50) 0 0 0 0 0
15-09-2018 29.4 (16:40) 20.4 (00:00) 24.9 12.5 (06:00) 6.67 (06:00) 26.6 23 3.6 0 0
14-09-2018 29.4 (14:20) 23.4 (00:00) 26.4 9.72 (16:10) 5.83 (12:40) 0 0 0 0 0
13-09-2018 29.2 (12:00) 22.6 (00:00) 25.9 6.67 (14:10) 3.61 (14:20) 0 0 0 0 0
12-09-2018 30.7 (13:30) 24.3 (00:00) 27.5 9.17 (15:50) 6.11 (14:30) 0 0 0 0 0
11-09-2018 30.1 (17:20) 23.4 (00:00) 26.8 11.94 (17:50) 6.67 (16:00) 0 0 0 0 0
10-09-2018 30.2 (12:30) 22.3 (00:00) 26.3 13.06 (13:20) 6.67 (14:10) 0 0 0 0 0
09-09-2018 28.3 (11:50) 22.4 (00:00) 25.3 9.17 (14:20) 4.72 (14:20) 1.2 0 0 1 0.2
08-09-2018 29 (17:20) 19.9 (00:00) 24.4 13.06 (12:30) 7.5 (12:20) 9.6 0 9.4 0.2 0
07-09-2018 27.8 (16:00) 24.1 (00:00) 25.9 7.78 (15:10) 4.17 (18:20) 0 0 0 0 0
06-09-2018 30.6 (18:10) 21.9 (00:00) 26.3 7.5 (15:40) 3.89 (14:30) 0 0 0 0 0
05-09-2018 29.8 (14:20) 21.7 (00:00) 25.8 7.22 (15:40) 4.17 (16:30) 0 0 0 0 0
04-09-2018 29.9 (14:40) 23.9 (00:00) 26.9 7.5 (15:20) 4.17 (16:00) 0 0 0 0 0
03-09-2018 30 (14:40) 22.6 (00:00) 26.3 7.22 (15:30) 3.89 (15:30) 0 0 0 0 0
02-09-2018 30 (13:20) 22.6 (00:00) 26.3 6.94 (13:00) 4.44 (12:00) 0 0 0 0 0
01-09-2018 30.5 (12:40) 23.2 (00:00) 26.9 10.56 (14:00) 6.67 (14:00) 0 0 0 0 0
31-08-2018 30.2 (11:50) 23.3 (00:00) 26.8 10.28 (13:30) 6.39 (13:30) 0 0 0 0 0
30-08-2018 31.3 (12:40) 24.7 (00:00) 28 9.72 (14:40) 6.11 (13:10) 0 0 0 0 0
29-08-2018 29.9 (16:00) 23.2 (00:00) 26.6 6.67 (15:50) 3.61 (13:20) 0 0 0 0 0
28-08-2018 32.3 (13:00) 24.5 (00:00) 28.4 9.17 (15:20) 6.11 (15:30) 0 0 0 0 0
27-08-2018 30 (15:00) 24 (00:00) 27 11.67 (16:30) 6.39 (14:30) 0 0 0 0 0
26-08-2018 32 (12:20) 24.6 (00:00) 28.3 10.28 (12:50) 6.39 (13:20) 0 0 0 0 0
25-08-2018 31.7 (11:50) 23.9 (00:00) 27.8 8.33 (12:10) 5 (12:10) 0 0 0 0 0

Gráficas

Temp. máximas Temp. mínimas Temp. medias Precipitaciones Rachas de viento máximas Velocidades máximas media en intervalos de 10 minutos

Datos horarios

Fecha y hora oficial Temperatura (ºC) Velocidad del viento (km/h) Dirección del viento Racha (km/h) Dirección de racha Precipitación (mm) Presión (hPa) Tendencia (hPa) Humedad (%)
2018-09-23 23:00:00 25.1 3 Norte 8 Nordeste 0 1017.3 0.2 48
2018-09-23 22:00:00 26.1 6 Nordeste 10 Nordeste 0 1017.1 0 43
2018-09-23 21:00:00 27.1 4 Norte 7 Este 0 1017.1 0.8 40
2018-09-23 20:00:00 28.2 5 Sudeste 12 Sudeste 0 1017.1 0.1 33
2018-09-23 19:00:00 28.9 9 Sudeste 18 Sudeste 0 1017.1 -0.4 39
2018-09-23 18:00:00 29.2 13 Sudeste 19 Sudeste 0 1016.3 -1.7 41
2018-09-23 17:00:00 29.1 12 Sudeste 21 Sudeste 0 1017 -1.7 46
2018-09-23 16:00:00 29.6 11 Sur 21 Sudeste 0 1017.5 -1.6 45
2018-09-23 15:00:00 30.1 14 Sudeste 22 Sudeste 0 1018 -1.1 36
2018-09-23 14:00:00 30.3 9 Sur 17 Este 0 1018.7 -0.3 33
2018-09-23 13:00:00 30.3 9 Sudeste 18 Sur 0 1019.1 0.3 29
2018-09-23 12:00:00 29.8 8 Sudeste 15 Sudeste 0 1019.1 0.9 33
2018-09-23 11:00:00 29.9 5 Sur 10 Sur 0 1019 1.2 30
2018-09-23 10:00:00 28.8 2 Noroeste 5 Oeste 0 1018.8 1 28
2018-09-23 09:00:00 24.8 4 Nordeste 8 Norte 0 1018.2 0.5 37
2018-09-23 08:00:00 21.2 0 Calma 8 Nordeste 0 1017.8 0.2 50
2018-09-23 07:00:00 21.8 0 Calma 10 Norte 0 1017.8 0.1 55
2018-09-23 06:00:00 22 3 Nordeste 9 Nordeste 0 1017.7 -0.4 56
2018-09-23 05:00:00 21.6 2 Norte 8 Norte 0 1017.6 -1 58
2018-09-23 04:00:00 22.9 3 Nordeste 9 Norte 0 1017.7 -0.9 56
2018-09-23 03:00:00 22.8 2 Nordeste 10 Norte 0 1018.1 -0.7 46
2018-09-23 02:00:00 22.7 2 Nordeste 7 Nordeste 0 1018.6 -0.1 55
2018-09-23 01:00:00 23.2 4 Nordeste 8 Nordeste 0 1018.6 -0.1 58
2018-09-23 00:00:00 23.4 0 Calma 5 Nordeste 0 1018.8 0.4 57
2018-09-22 23:00:00 23.9 3 Norte 6 Nordeste 0 1018.7 0.5 59
2018-09-22 22:00:00 24.5 4 Noroeste 7 Noroeste 0 1018.7 0.8 66
2018-09-22 21:00:00 25.3 3 Noroeste 8 Sudoeste 0 1018.4 0.4 67
2018-09-22 20:00:00 26.5 3 Sudoeste 10 Sudeste 0 1018.2 0 58
2018-09-22 19:00:00 27.8 4 Sur 11 Sudeste 0 1017.9 -0.6 48
2018-09-22 18:00:00 27.9 7 Sur 14 Sur 0 1018 -0.9 50
2018-09-22 17:00:00 28.2 8 Sur 21 Sur 0 1018.2 -1 54
2018-09-22 16:00:00 28.3 9 Sur 18 Sudeste 0 1018.5 -1.2 55
2018-09-22 15:00:00 27.7 10 Sur 19 Sudeste 0 1018.9 -0.3 58
2018-09-22 14:00:00 27.8 11 Sur 20 Sur 0 1019.2 -0.8 61
2018-09-22 13:00:00 27.8 11 Sur 20 Sur 0 1019.7 1 61
2018-09-22 12:00:00 28 7 Sur 13 Sudoeste 0 1019.2 1 61
2018-09-22 11:00:00 27.7 4 Sur 9 Sudeste 0 1020 2.5 62
2018-09-22 10:00:00 26.2 4 Este 10 Este 0 1018.7 1.8 69
2018-09-22 09:00:00 24.3 4 Nordeste 8 Nordeste 0 1018.2 1.5 75
2018-09-22 08:00:00 23.7 2 Norte 8 Nordeste 0 1017.5 1.3 74
2018-09-22 07:00:00 24 4 Nordeste 9 Nordeste 0 1016.9 0.7 75
2018-09-22 06:00:00 24.1 5 Nordeste 9 Nordeste 0 1016.7 0.3 74
2018-09-22 05:00:00 24 4 Nordeste 10 Nordeste 0 1016.2 -0.1 74
2018-09-22 04:00:00 23.3 0 Calma 7 Nordeste 0 1016.2 -0.1 69
2018-09-22 03:00:00 23.5 4 Norte 10 Nordeste 0 1016.4 0.2 69
2018-09-22 02:00:00 24.1 5 Nordeste 8 Nordeste 0 1016.3 0.6 66
2018-09-22 01:00:00 24.3 3 Nordeste 8 Nordeste 0 1016.3 0.9 67
2018-09-22 00:00:00 24.4 4 Nordeste 8 Nordeste 0 1016.2 1.4 63
2018-09-21 23:00:00 24.7 3 Este 4 Este 0 1015.7 1.3 69
2018-09-21 22:00:00 25 0 Calma 5 Norte 0 1015.4 1.3 66
2018-09-21 21:00:00 25.2 2 Noroeste 7 Sudoeste 0 1014.8 0.8 67
2018-09-21 20:00:00 25.9 3 Sudoeste 11 Sudoeste 0 1014.4 0 66
2018-09-21 19:00:00 26.9 5 Sudoeste 15 Sur 0 1014.1 -0.4 64
2018-09-21 18:00:00 27.2 7 Sudoeste 17 Sur 0 1014 -0.8 63
2018-09-21 17:00:00 27.8 9 Sur 21 Sudoeste 0 1014.4 -0.9 61
2018-09-21 16:00:00 28 9 Sudoeste 21 Sur 0 1014.5 -1.2 59
2018-09-21 15:00:00 27.7 10 Sudoeste 23 Sudoeste 0 1014.8 -1.8 64
2018-09-21 14:00:00 27.2 10 Sur 21 Sudoeste 0 1015.3 -0.6 64
2018-09-21 13:00:00 27.5 9 Sur 18 Sudoeste 0 1015.7 0.7 60
2018-09-21 12:00:00 27.4 7 Sudoeste 15 Sudoeste 0 1016.6 2 57
2018-09-21 11:00:00 26.9 5 Sur 12 Sur 0 1015.9 1.8 58
2018-09-21 10:00:00 26.3 4 Sur 7 Sur 0 1015 1.3 63
2018-09-21 09:00:00 24.1 0 Calma 7 Nordeste 0 1014.6 1.2 67
2018-09-21 08:00:00 21.8 6 Nordeste 10 Nordeste 0 1014.1 0.6 72
2018-09-21 07:00:00 21.1 0 Calma 5 Nordeste 0 1013.7 -0.1 76
2018-09-21 06:00:00 21.1 0 Calma 5 Norte 0 1013.4 -0.8 77
2018-09-21 05:00:00 21.7 4 Noroeste 7 Noroeste 0 1013.5 -1.1 74
2018-09-21 04:00:00 21.9 0 Calma 8 Noroeste 0 1013.8 -1.1 71
2018-09-21 03:00:00 22.2 4 Noroeste 10 Noroeste 0 1014.2 -0.7 70
2018-09-21 02:00:00 23 3 Norte 8 Norte 0 1014.6 -0.4 76
2018-09-21 01:00:00 23.4 4 Norte 7 Norte 0 1014.9 0 76
2018-09-21 00:00:00 23.7 3 Noroeste 8 Noroeste 0 1014.9 0.2 75
2018-09-20 23:00:00 24.5 3 Norte 7 Noroeste 0 1015 0.8 72
2018-09-20 22:00:00 24.8 2 Oeste 7 Oeste 0 1014.9 0.4 70
2018-09-20 21:00:00 25.2 5 Oeste 11 Sudoeste 0 1014.7 0.1 69
2018-09-20 20:00:00 25.8 4 Sudoeste 13 Sudeste 0 1014.2 -0.9 66
2018-09-20 19:00:00 26.5 7 Sur 15 Sur 0 1014.5 -1 63
2018-09-20 18:00:00 27.5 8 Sur 21 Sur 0 1014.6 -1.3 61
2018-09-20 17:00:00 27.9 8 Sur 20 Sur 0 1015.1 -1.3 60
2018-09-20 16:00:00 27.8 10 Sudeste 19 Sudoeste 0 1015.5 -1.5 61
2018-09-20 15:00:00 27.7 10 Sur 21 Sudeste 0 1015.9 -0.6 59
2018-09-20 14:00:00 27.7 11 Sur 24 Sur 0 1016.4 -0.5 59
2018-09-20 13:00:00 28 10 Sur 19 Sur 0 1017 0.1 55
2018-09-20 12:00:00 27.8 11 Sudeste 21 Sudeste 0 1016.5 -0.2 57
2018-09-20 11:00:00 28.2 5 Sur 14 Sudeste 0 1016.9 0.5 55
2018-09-20 10:00:00 26.4 3 Noroeste 9 Noroeste 0 1016.9 0.7 64
2018-09-20 09:00:00 24.2 3 Norte 8 Norte 0 1016.7 0.7 72
2018-09-20 08:00:00 24.2 3 Norte 6 Norte 0 1016.4 0.4 72
2018-09-20 07:00:00 24.2 3 Este 5 Este 0 1016.2 -0.1 72
2018-09-20 06:00:00 24.2 3 Este 5 Nordeste 0 1016 -0.8 75
2018-09-20 05:00:00 24 5 Nordeste 10 Nordeste 0 1016 -1.2 79
2018-09-20 04:00:00 23.5 3 Nordeste 7 Noroeste 0 1016.3 -1.3 80
2018-09-20 03:00:00 24 2 Noroeste 7 Noroeste 0 1016.8 -0.9 79
2018-09-20 02:00:00 24.3 4 Noroeste 5 Norte 0 1017.2 -0.4 78
2018-09-20 01:00:00 24.6 4 Este 8 Este 0 1017.6 0.6 77
2018-09-20 00:00:00 25 4 Este 7 Nordeste 0 1017.7 1.2 76
2018-09-19 23:00:00 25.3 4 Este 8 Sudeste 0 1017.6 1.6 75
2018-09-19 22:00:00 25.3 2 Sudeste 8 Sudeste 0 1017 1.1 75
2018-09-19 21:00:00 25.4 5 Sudeste 10 Sudeste 0 1016.5 0.6 74
2018-09-19 20:00:00 25.6 4 Sudeste 13 Sudeste 0 1016 0 73
2018-09-19 19:00:00 26.3 5 Sur 15 Sudeste 0 1015.9 -0.2 70
2018-09-19 18:00:00 26.4 7 Sudeste 15 Sudeste 0 1015.9 -0.5 69
2018-09-19 17:00:00 27.4 8 Sudeste 17 Sudeste 0 1016 -0.7 65
2018-09-19 16:00:00 27 9 Sur 22 Sur 0 1016.1 -0.9 66
2018-09-19 15:00:00 27.2 10 Sudeste 22 Sudeste 0 1016.4 0.1 65
2018-09-19 14:00:00 28.1 12 Sudeste 23 Sudeste 0 1016.7 0.5 62
2018-09-19 13:00:00 27.7 12 Sudeste 22 Sudeste 0 1017 1.3 61
2018-09-19 12:00:00 27.6 10 Sudeste 19 Sur 0 1016.3 1.1 64
2018-09-19 11:00:00 27.5 9 Sur 15 Sur 0 1016.2 1.5 64
2018-09-19 10:00:00 26.9 4 Oeste 8 Oeste 0 1015.7 1.3 69
2018-09-19 09:00:00 24.6 3 Norte 6 Norte 0 1015.2 1.1 76
2018-09-19 08:00:00 23.7 3 Norte 6 Noroeste 0 1014.7 0.8 78
2018-09-19 07:00:00 24.2 2 Norte 8 Nordeste 0 1014.4 0.3 78
2018-09-19 06:00:00 24.5 3 Norte 6 Nordeste 0 1014.1 -0.4 79
2018-09-19 05:00:00 24.4 4 Oeste 8 Noroeste 0 1013.9 -0.8 79
2018-09-19 04:00:00 24.7 4 Oeste 6 Noroeste 0 1014.1 -0.8 79
2018-09-19 03:00:00 25.1 0 Calma 7 Oeste 0 1014.5 -0.1 77
2018-09-19 02:00:00 25.2 2 Este 7 Este 0 1014.7 0.4 76
2018-09-19 01:00:00 25.4 4 Sudeste 8 Este 0 1014.9 0.8 76
2018-09-19 00:00:00 25.4 4 Sudeste 8 Sudeste 0 1014.6 1.6 76
2018-09-18 23:00:00 25.4 5 Sudeste 13 Sudeste 0 1014.3 1.7 76
2018-09-18 22:00:00 25.7 7 Sudeste 14 Sudeste 0 1014.1 2.2 75
2018-09-18 21:00:00 25.6 5 Sudeste 12 Sudeste 0 1013 1.3 75
2018-09-18 20:00:00 25.9 7 Sudeste 17 Sur 0 1012.6 0.4 74
2018-09-18 19:00:00 26.4 9 Sudeste 17 Sudeste 0 1011.9 0.2 72
2018-09-18 18:00:00 26.8 8 Sudeste 17 Sudeste 0 1011.7 0.7 71
2018-09-18 17:00:00 27 6 Sur 19 Sudeste 0 1012.2 -0.8 69
2018-09-18 16:00:00 29.1 8 Sur 18 Sudoeste 0 1011.7 0 55
2018-09-18 15:00:00 29.3 10 Sudoeste 21 Sur 0 1011 -1.6 56
2018-09-18 14:00:00 29.4 9 Sur 18 Sudoeste 0 1013 0.5 53
2018-09-18 13:00:00 29 10 Sur 22 Sudeste 0 1011.7 -0.4 52
2018-09-18 12:00:00 28.7 13 Sudeste 22 Sudeste 0 1012.6 0.9 52
2018-09-18 11:00:00 28.1 6 Sudoeste 13 Sur 0 1012.5 1.3 54
2018-09-18 10:00:00 27.5 2 Sudeste 6 Sudeste 0 1012.1 1.2 56
2018-09-18 09:00:00 24.3 2 Norte 7 Nordeste 0 1011.7 0.8 69
2018-09-18 08:00:00 23 3 Este 9 Nordeste 0 1011.2 0.7 73
2018-09-18 07:00:00 22.9 6 Nordeste 9 Nordeste 0 1010.9 0.5 75
2018-09-18 06:00:00 22.7 0 Calma 7 Nordeste 0 1010.9 0.1 75
2018-09-18 05:00:00 23 5 Nordeste 8 Nordeste 0 1010.5 -0.9 76
2018-09-18 04:00:00 23.4 4 Nordeste 8 Nordeste 0 1010.4 -1.1 75
2018-09-18 03:00:00 23.4 2 Este 9 Nordeste 0 1010.8 -1.2 76
2018-09-18 02:00:00 23.6 2 Oeste 7 Noroeste 0 1011.4 -0.8 78
2018-09-18 01:00:00 24.2 0 Calma 6 Noroeste 0 1011.5 -0.7 75
2018-09-18 00:00:00 24.4 2 Noroeste 8 Este 0 1012 0.5 74
2018-09-17 23:00:00 25.1 5 Este 9 Este 0 1012.2 0.5 72
2018-09-17 22:00:00 25.6 6 Este 23 Este 0 1012.2 0.5 70
2018-09-17 21:00:00 25.6 12 Este 22 Este 0 1011.5 -0.2 75
2018-09-17 20:00:00 25.9 13 Este 22 Este 0 1011.7 -0.3 72
2018-09-17 19:00:00 26.6 13 Sudeste 31 Sudeste 0 1011.7 -1 69
2018-09-17 18:00:00 27.7 14 Sudeste 30 Sudeste 0 1011.7 -1.7 63
2018-09-17 17:00:00 28.6 18 Sudeste 29 Sudeste 0 1012 -2 58
2018-09-17 16:00:00 29.1 14 Sudeste 34 Este 0 1012.7 -1.5 56
2018-09-17 15:00:00 28.7 18 Sudeste 35 Este 0 1013.4 -1.7 56
2018-09-17 14:00:00 27.7 18 Este 36 Este 0 1014 -0.9 58
2018-09-17 13:00:00 27.9 15 Este 29 Este 0 1014.2 -0.7 58
2018-09-17 12:00:00 27.1 18 Este 33 Nordeste 0 1015.1 0.4 59
2018-09-17 11:00:00 26.7 16 Este 27 Nordeste 0 1014.9 1.1 61
2018-09-17 10:00:00 25.6 9 Nordeste 17 Nordeste 0 1014.9 1.8 67
2018-09-17 09:00:00 24.6 0 Calma 12 Sudoeste 0 1014.7 1.2 68
2018-09-17 08:00:00 24 8 Oeste 17 Oeste 0 1013.8 -0.8 70
2018-09-17 07:00:00 23.8 3 Sudoeste 8 Norte 0 1013.1 -1.1 71
2018-09-17 06:00:00 24.4 4 Norte 14 Norte 0 1013.5 -1.7 71
2018-09-17 05:00:00 24 3 Noroeste 8 Sudoeste 0 1014.6 -1.6 71
2018-09-17 04:00:00 24.1 2 Norte 10 Norte 0 1014.2 -1.7 70
2018-09-17 03:00:00 24.7 4 Noroeste 14 Nordeste 0 1015.2 -0.7 67
2018-09-17 02:00:00 24.6 3 Nordeste 7 Norte 0 1016.2 0.6 66
2018-09-17 01:00:00 24.2 0 Calma 8 Nordeste 0 1015.9 0.2 73
2018-09-17 00:00:00 24.6 0 Calma 4 Noroeste 0 1015.9 0.7 78
2018-09-16 23:00:00 24.9 2 Oeste 8 Noroeste 0 1015.6 0.7 77
2018-09-16 22:00:00 25.4 4 Este 13 Este 0 1015.7 0.9 77
2018-09-16 21:00:00 25.8 8 Este 17 Este 0 1015.2 0.5 74
2018-09-16 20:00:00 26.4 9 Este 21 Sudeste 0 1014.9 0 72
2018-09-16 19:00:00 26.9 12 Sudeste 28 Sudeste 0 1014.8 -0.3 69
2018-09-16 18:00:00 27.8 16 Sudeste 30 Sudeste 0 1014.7 -0.9 61
2018-09-16 17:00:00 28.5 18 Sudeste 27 Sudeste 0 1014.9 -1.1 54
2018-09-16 16:00:00 29.1 12 Este 28 Sudeste 0 1015.1 -1.5 50
2018-09-16 15:00:00 28.2 16 Sudeste 27 Sudeste 0 1015.6 -1 52
2018-09-16 14:00:00 27.2 19 Sudeste 33 Sudeste 0 1016 0 55
2018-09-16 13:00:00 29.1 19 Sudeste 30 Sudeste 0 1016.6 0.6 46
2018-09-16 12:00:00 28.3 5 Sudoeste 15 Noroeste 0 1016.6 0.3 49
2018-09-16 11:00:00 26.1 9 Noroeste 16 Noroeste 0 1016 0 57
2018-09-16 10:00:00 25 4 Noroeste 10 Norte 0 1016 0.7 63
2018-09-16 09:00:00 23.2 5 Norte 10 Norte 0 1016.3 1.3 68
2018-09-16 08:00:00 23 2 Oeste 9 Nordeste 0 1016 1.2 67
2018-09-16 07:00:00 22.7 6 Norte 13 Norte 0 1015.3 -0.6 67
2018-09-16 06:00:00 22.7 4 Norte 15 Norte 0 1015 -1.7 70
2018-09-16 05:00:00 22.7 7 Norte 15 Norte 0 1014.8 -2.2 70
2018-09-16 04:00:00 22.7 5 Norte 9 Norte 0 1015.9 -0.8 73
2018-09-16 03:00:00 22.6 3 Norte 8 Nordeste 0 1016.7 0.1 73
2018-09-16 02:00:00 23 2 Norte 11 Norte 0 1017 0.2 71
2018-09-16 01:00:00 22.9 5 Norte 9 Norte 0 1016.7 0.5 74
2018-09-16 00:00:00 23.6 2 Nordeste 6 Norte 0 1016.6 0.9 69
2018-09-15 23:00:00 24.2 2 Norte 9 Este 0 1016.8 1.8 67
2018-09-15 22:00:00 24.8 4 Nordeste 12 Nordeste 0 1016.2 1.7 63
2018-09-15 21:00:00 25 4 Este 16 Este 0 1015.7 1.5 64
2018-09-15 20:00:00 25.8 9 Este 25 Este 0 1015 0.4 60
2018-09-15 19:00:00 26.7 17 Este 33 Este 0 1014.5 0.3 58
2018-09-15 18:00:00 28.4 15 Este 32 Sudeste 0 1014.2 -0.5 52
2018-09-15 17:00:00 28.8 16 Este 30 Este 0 1014.6 -0.5 49
2018-09-15 16:00:00 29.1 6 Sudoeste 21 Norte 0 1014.2 -1.4 51
2018-09-15 15:00:00 27.8 10 Este 20 Este 0 1014.7 -0.4 55
2018-09-15 14:00:00 26.1 4 Nordeste 24 Noroeste 0 1015.1 0.1 62
2018-09-15 13:00:00 26.1 6 Este 23 Nordeste 0 1015.6 0.9 61
2018-09-15 12:00:00 25.3 9 Este 18 Nordeste 0 1015.1 0.7 64
2018-09-15 11:00:00 25.3 5 Este 10 Este 0 1015 1 66
2018-09-15 10:00:00 24.3 4 Este 12 Nordeste 0 1014.7 0.9 70
2018-09-15 09:00:00 22.8 10 Nordeste 19 Este 0 1014.4 1.1 74
2018-09-15 08:00:00 21.9 10 Nordeste 26 Nordeste 0.2 1014 1 79
2018-09-15 07:00:00 21.3 12 Nordeste 34 Este 3.4 1013.8 1.6 81
2018-09-15 06:00:00 20.6 24 Este 45 Este 16.8 1013.3 0 85
2018-09-15 05:00:00 23 3 Este 13 Este 1.4 1013 -0.3 81
2018-09-15 04:00:00 23.5 3 Nordeste 21 Este 4 1012.2 -2.3 77
2018-09-15 03:00:00 24.4 7 Nordeste 15 Norte 0 1013.3 -1.1 71
2018-09-15 02:00:00 24.2 10 Nordeste 19 Nordeste 0.2 1013.3 -0.5 72
2018-09-15 01:00:00 24.1 6 Noroeste 15 Este 0.6 1014.5 0.9 76
2018-09-15 00:00:00 25.5 5 Nordeste 15 Este 0 1014.4 0.5 61
2018-09-14 23:00:00 25.4 8 Este 19 Este 0 1013.8 0.5 63
2018-09-14 22:00:00 25.4 9 Este 19 Sudeste 0 1013.6 0.9 69
2018-09-14 21:00:00 25.9 13 Sudeste 23 Sudeste 0 1013.9 0.9 68
2018-09-14 20:00:00 26.1 12 Sudeste 22 Sudeste 0 1013.3 -0.1 67
2018-09-14 19:00:00 26.9 12 Este 25 Sudeste 0 1012.7 -0.9 64
2018-09-14 18:00:00 27.8 15 Este 28 Este 0 1013 -1 58
2018-09-14 17:00:00 27.2 14 Sudeste 35 Este 0 1013.4 -1.5 60
2018-09-14 16:00:00 28.2 20 Sudeste 32 Sudeste 0 1013.6 -1.7 59
2018-09-14 15:00:00 29.1 18 Sudeste 30 Sudeste 0 1014 -0.2 52
2018-09-14 14:00:00 28.5 16 Sudeste 31 Sudeste 0 1014.9 -1.1 56
2018-09-14 13:00:00 28.1 20 Sudeste 33 Sudeste 0 1015.3 0.5 53
2018-09-14 12:00:00 28.8 18 Sudeste 28 Sudeste 0 1014.2 -0.3 48
2018-09-14 11:00:00 28.1 10 Sudeste 18 Sudeste 0 1016 2.1 53
2018-09-14 10:00:00 26.3 3 Sudeste 8 Sudeste 0 1014.8 1.2 64
2018-09-14 09:00:00 23.9 0 Calma 7 Nordeste 0 1014.5 0.9 76
2018-09-14 08:00:00 23.4 2 Este 4 Este 0 1013.9 0 76
2018-09-14 07:00:00 24 4 Nordeste 9 Nordeste 0 1013.6 -0.3 74
2018-09-14 06:00:00 24.2 5 Norte 10 Nordeste 0 1013.6 -0.5 76
2018-09-14 05:00:00 24.1 2 Norte 8 Norte 0 1013.9 -0.7 77
2018-09-14 04:00:00 24.3 3 Norte 5 Nordeste 0 1013.9 -0.8 75
2018-09-14 03:00:00 24.7 4 Nordeste 6 Nordeste 0 1014.1 -0.4 75
2018-09-14 02:00:00 25.1 3 Nordeste 7 Este 0 1014.6 0.1 76
2018-09-14 01:00:00 25.2 5 Sudeste 7 Sudeste 0 1014.7 0.3 75
2018-09-14 00:00:00 25.5 3 Nordeste 7 Nordeste 0 1014.5 0.3 73
2018-09-13 23:00:00 25.6 3 Este 8 Este 0 1014.5 0.3 72
2018-09-13 22:00:00 25.9 4 Este 12 Sudeste 0 1014.4 0.4 72
2018-09-13 21:00:00 26.2 8 Sudeste 14 Este 0 1014.2 0.3 70
2018-09-13 20:00:00 26.4 7 Sudeste 13 Sudeste 0 1014.2 1.4 71
2018-09-13 19:00:00 26.7 6 Sur 14 Este 0 1014 -1 69
2018-09-13 18:00:00 27.7 8 Sur 19 Sur 0 1013.9 -1.1 64
2018-09-13 17:00:00 27.7 9 Sur 18 Sudeste 0 1012.8 -2.4 64
2018-09-13 16:00:00 28.3 10 Sur 19 Sur 0 1015 0.1 63
2018-09-13 15:00:00 28.2 9 Sur 24 Sur 0 1015 -0.2 63
2018-09-13 14:00:00 28.1 12 Sur 22 Sudeste 0 1015.2 0 62
2018-09-13 13:00:00 28 11 Sur 20 Sur 0 1014.9 0 62
2018-09-13 12:00:00 28.6 7 Sur 14 Sudoeste 0 1015.2 0.8 57
2018-09-13 11:00:00 28.5 6 Sur 10 Sur 0 1015.2 1.2 57
2018-09-13 10:00:00 27 5 Sur 9 Sudoeste 0 1014.9 1 62
2018-09-13 09:00:00 25 0 Calma 5 Noroeste 0 1014.4 0.5 63
2018-09-13 08:00:00 22.6 2 Norte 8 Noroeste 0 1014 0.1 71
2018-09-13 07:00:00 23.3 3 Norte 8 Noroeste 0 1013.9 -0.4 67
2018-09-13 06:00:00 23.5 3 Norte 8 Norte 0 1013.9 -0.9 66
2018-09-13 05:00:00 23.8 0 Calma 10 Nordeste 0 1013.9 -1.5 65
2018-09-13 04:00:00 24.2 3 Nordeste 10 Este 0 1014.3 -1.7 67
2018-09-13 03:00:00 24.3 4 Norte 11 Oeste 0 1014.8 -1.6 66
2018-09-13 02:00:00 24.1 6 Oeste 11 Noroeste 0 1015.4 -1 68
2018-09-13 01:00:00 24.6 4 Norte 9 Norte 0 1016 -0.5 69
2018-09-13 00:00:00 25 6 Noroeste 10 Noroeste 0 1016.4 0.6 67
2018-09-12 23:00:00 25.9 3 Oeste 8 Nordeste 0 1016.4 0.9 63
2018-09-12 22:00:00 26.1 3 Sudeste 10 Este 0 1016.5 0.2 62
2018-09-12 21:00:00 26.3 4 Sudeste 11 Nordeste 0 1015.8 -0.3 62
2018-09-12 20:00:00 26.6 6 Sudeste 23 Este 0 1015.5 -1.1 67
2018-09-12 19:00:00 27 13 Sudeste 26 Sudeste 0 1016.3 -1.3 68
2018-09-12 18:00:00 27.7 17 Sudeste 30 Sudeste 0 1016.1 -1.3 64
2018-09-12 17:00:00 28.4 17 Sudeste 31 Sudeste 0 1016.6 -0.9 66
2018-09-12 16:00:00 28.9 21 Sudeste 33 Este 0 1017.6 -0.2 60
2018-09-12 15:00:00 29.6 18 Sudeste 31 Sudeste 0 1017.4 -1.4 54
2018-09-12 14:00:00 29.6 19 Sudeste 28 Sudeste 0 1017.5 -1.3 54
2018-09-12 13:00:00 30 17 Sudeste 26 Este 0 1017.8 -0.5 52
2018-09-12 12:00:00 28.6 16 Este 29 Este 0 1018.8 1 57
2018-09-12 11:00:00 27.8 12 Este 24 Nordeste 0 1018.8 1.3 59
2018-09-12 10:00:00 27 8 Este 17 Este 0 1018.3 1.3 63
2018-09-12 09:00:00 25.1 4 Nordeste 10 Norte 0 1017.8 0.5 69
2018-09-12 08:00:00 24.7 0 Calma 8 Nordeste 0 1017.5 0.1 69
2018-09-12 07:00:00 24.8 4 Norte 7 Norte 0 1017 -0.3 68
2018-09-12 06:00:00 24.8 4 Norte 7 Norte 0 1017.3 -0.3 69
2018-09-12 05:00:00 25.3 3 Sudeste 7 Este 0 1017.4 -0.9 68
2018-09-12 04:00:00 25.3 3 Noroeste 5 Noroeste 0 1017.3 -1.4 66
2018-09-12 03:00:00 25.5 4 Norte 13 Nordeste 0 1017.6 -0.6 67
2018-09-12 02:00:00 25.7 6 Nordeste 12 Este 0 1018.3 0.6 67
2018-09-12 01:00:00 25.7 2 Nordeste 10 Nordeste 0 1018.7 1.8 66
2018-09-12 00:00:00 25.9 8 Este 17 Este 0 1018.2 2.2 64
2018-09-11 23:00:00 26.4 12 Este 27 Este 0 1017.7 1.9 61
2018-09-11 22:00:00 27.3 6 Nordeste 14 Este 0 1016.9 1.3 54
2018-09-11 21:00:00 27.6 10 Nordeste 22 Este 0 1016 0.3 54
2018-09-11 20:00:00 27.7 14 Este 30 Este 0 1015.8 -0.1 56
2018-09-11 19:00:00 28.2 17 Este 32 Este 0 1015.6 -0.8 58
2018-09-11 18:00:00 29.5 18 Este 43 Este 0 1015.7 -1.3 52
2018-09-11 17:00:00 29.1 23 Este 41 Este 0 1015.9 -1.5 52
2018-09-11 16:00:00 29.2 24 Este 40 Este 0 1016.4 -1.3 53
2018-09-11 15:00:00 27.8 16 Este 30 Nordeste 0 1017 -0.9 60
2018-09-11 14:00:00 27.6 14 Nordeste 31 Este 0 1017.4 -0.1 56
2018-09-11 13:00:00 28.1 17 Este 40 Este 0 1017.7 0.6 50
2018-09-11 12:00:00 27.9 22 Este 41 Este 0 1017.9 1.2 49
2018-09-11 11:00:00 28 20 Nordeste 37 Este 0 1017.5 1 49
2018-09-11 10:00:00 27.1 17 Nordeste 36 Nordeste 0 1017.1 0.5 52
2018-09-11 09:00:00 25.8 9 Nordeste 33 Nordeste 0 1016.7 -0.1 55
2018-09-11 08:00:00 25.2 12 Nordeste 23 Nordeste 0 1016.5 -0.8 55
2018-09-11 07:00:00 25.2 10 Nordeste 23 Nordeste 0 1016.6 -0.9 55
2018-09-11 06:00:00 24.5 7 Este 15 Este 0 1016.8 -0.5 59
2018-09-11 05:00:00 23.7 3 Norte 10 Nordeste 0 1017.3 -0.1 67
2018-09-11 04:00:00 24.1 2 Nordeste 13 Nordeste 0 1017.5 -0.2 67
2018-09-11 03:00:00 24.2 4 Este 18 Este 0 1017.3 -0.7 67
2018-09-11 02:00:00 24.7 9 Nordeste 20 Nordeste 0 1017.4 -0.3 65
2018-09-11 01:00:00 24.9 8 Nordeste 16 Norte 0 1017.7 0.2 64
2018-09-11 00:00:00 25.2 5 Nordeste 20 Nordeste 0 1018 1.2 62
2018-09-10 23:00:00 25.6 10 Nordeste 20 Nordeste 0 1017.7 1.5 60
2018-09-10 22:00:00 26 6 Nordeste 24 Nordeste 0 1017.5 1.5 57
2018-09-10 21:00:00 26.3 16 Este 32 Este 0 1016.8 1.2 57
2018-09-10 20:00:00 26.8 17 Este 35 Este 0 1016.2 0.5 57
2018-09-10 19:00:00 27.4 22 Este 44 Este 0 1016 0.1 60
2018-09-10 18:00:00 28.5 21 Este 41 Sudeste 0 1015.6 -0.9 54
2018-09-10 17:00:00 28.8 20 Sudeste 36 Sudeste 0 1015.7 -0.6 53
2018-09-10 16:00:00 29.2 18 Sudeste 37 Sudeste 0 1015.9 -0.8 50
2018-09-10 15:00:00 28.1 21 Este 41 Sudeste 0 1016.5 -0.5 57
2018-09-10 14:00:00 29.8 17 Este 47 Este 0 1016.3 -0.3 40
2018-09-10 13:00:00 29.7 18 Sudeste 28 Este 0 1016.7 -0.2 42
2018-09-10 12:00:00 29.7 12 Este 27 Este 0 1017 1.7 41
2018-09-10 11:00:00 28.5 4 Sur 15 Noroeste 0 1016.6 1.9 47
2018-09-10 10:00:00 26.7 6 Noroeste 13 Noroeste 0 1016.9 2.2 58
2018-09-10 09:00:00 24.3 5 Noroeste 8 Noroeste 0 1015.3 0.5 66
2018-09-10 08:00:00 22.7 6 Noroeste 16 Noroeste 0 1014.7 -0.5 70
2018-09-10 07:00:00 22.4 4 Noroeste 10 Nordeste 0 1014.7 -0.7 76
2018-09-10 06:00:00 22.7 4 Nordeste 10 Norte 0 1014.8 -0.4 75
2018-09-10 05:00:00 22.9 6 Norte 10 Nordeste 0 1015.2 -0.1 75
2018-09-10 04:00:00 22.5 3 Norte 10 Nordeste 0 1015.4 -0.5 78
2018-09-10 03:00:00 23 5 Nordeste 8 Nordeste 0 1015.2 -0.6 78
2018-09-10 02:00:00 23 3 Norte 8 Norte 0 1015.3 0.6 78
2018-09-10 01:00:00 23.4 2 Nordeste 10 Noroeste 0 1015.9 1.4 76
2018-09-10 00:00:00 23.4 7 Noroeste 13 Noroeste 0 1015.8 2.5 77
2018-09-09 23:00:00 24 3 Sudeste 8 Nordeste 0 1014.7 2.1 77
2018-09-09 22:00:00 24.5 4 Nordeste 16 Noroeste 0 1014.5 1.2 76
2018-09-09 21:00:00 24.9 4 Este 14 Este 0 1013.3 1 74
2018-09-09 20:00:00 25.4 6 Este 14 Este 0.2 1012.6 -0.8 70
2018-09-09 19:00:00 26.3 6 Este 15 Nordeste 0 1013.3 -0.3 61
2018-09-09 18:00:00 25.8 7 Este 15 Este 0.2 1012.3 -0.3 65
2018-09-09 17:00:00 26.5 9 Nordeste 23 Este 0 1013.4 0.2 64
2018-09-09 16:00:00 27 9 Sudeste 22 Sudeste 0 1013.6 -1.1 60
2018-09-09 15:00:00 25 9 Este 33 Este 0 1012.6 -2 68
2018-09-09 14:00:00 24.8 10 Nordeste 19 Nordeste 0.4 1013.2 -1.1 72
2018-09-09 13:00:00 25.5 8 Nordeste 23 Este 0.4 1014.7 0.2 68
2018-09-09 12:00:00 27.7 11 Este 21 Sudeste 0 1014.6 -0.2 51
2018-09-09 11:00:00 27.1 5 Norte 13 Norte 0 1014.3 0.6 54
2018-09-09 10:00:00 24.5 3 Sur 9 Norte 0 1014.5 2.2 62
2018-09-09 09:00:00 23.7 4 Noroeste 12 Noroeste 0 1014.8 2.2 63
2018-09-09 08:00:00 22.6 8 Norte 16 Noroeste 0 1013.7 1.3 64
2018-09-09 07:00:00 22.9 5 Norte 17 Norte 0 1012.3 -0.1 65
2018-09-09 06:00:00 23.1 7 Norte 17 Noroeste 0 1012.6 -1 65
2018-09-09 05:00:00 23.3 9 Noroeste 23 Norte 0 1012.4 -1.6 61
2018-09-09 04:00:00 24.7 5 Norte 20 Nordeste 0 1012.4 -1.5 64
2018-09-09 03:00:00 23.6 0 Calma 12 Noroeste 0 1013.6 -0.2 68
2018-09-09 02:00:00 23.4 7 Noroeste 18 Noroeste 0 1014 0.2 64
2018-09-09 01:00:00 24.5 5 Norte 14 Nordeste 0 1013.9 0.1 60
2018-09-09 00:00:00 24 2 Noroeste 13 Nordeste 0 1013.8 0.5 61
2018-09-08 23:00:00 24.3 4 Norte 10 Este 0 1013.8 0.3 58
2018-09-08 22:00:00 23.8 3 Norte 19 Nordeste 0 1013.8 0.5 62
2018-09-08 21:00:00 24.6 9 Norte 29 Norte 0 1013.3 0.7 57
2018-09-08 20:00:00 26.2 8 Norte 23 Este 0 1013.5 1.2 52
2018-09-08 19:00:00 27.1 11 Este 35 Este 0 1013.3 0.7 47
2018-09-08 18:00:00 27.6 18 Este 37 Este 0 1012.6 0.2 45
2018-09-08 17:00:00 28.6 12 Este 28 Norte 0 1012.3 -0.3 44
2018-09-08 16:00:00 26.6 13 Noroeste 28 Noroeste 0 1012.6 -0.8 52
2018-09-08 15:00:00 27.2 9 Norte 26 Norte 0 1012.4 -0.7 49
2018-09-08 14:00:00 23.4 14 Norte 33 Norte 0.2 1012.6 -3.5 70
2018-09-08 13:00:00 26 7 Oeste 47 Este 0 1013.4 -2.3 57
2018-09-08 12:00:00 22.5 18 Este 36 Este 1.4 1013.1 0 72
2018-09-08 11:00:00 20.1 11 Norte 39 Norte 6 1016.1 3.3 77
2018-09-08 10:00:00 21.4 14 Noroeste 30 Noroeste 2 1015.7 4.2 74
2018-09-08 09:00:00 23.2 13 Norte 24 Norte 0 1013.1 2 69
2018-09-08 08:00:00 24.5 4 Este 22 Nordeste 0 1012.8 1.5 63
2018-09-08 07:00:00 24.3 9 Nordeste 21 Nordeste 0 1011.5 0 64
2018-09-08 06:00:00 24.1 8 Nordeste 18 Este 0 1011.1 -0.5 60
2018-09-08 05:00:00 23.5 3 Nordeste 15 Este 0 1011.3 -0.7 61
2018-09-08 04:00:00 23.5 4 Nordeste 8 Este 0 1011.5 -0.9 61
2018-09-08 03:00:00 23.1 4 Norte 10 Nordeste 0 1011.6 -0.9 59
2018-09-08 02:00:00 23 4 Norte 7 Nordeste 0 1012 -0.2 55
2018-09-08 01:00:00 23.4 3 Nordeste 7 Noroeste 0 1012.4 0.7 57
2018-09-08 00:00:00 24.1 3 Noroeste 10 Norte 0 1012.5 1.7 58
2018-09-07 23:00:00 25 5 Nordeste 17 Este 0 1012.2 1.8 58
2018-09-07 22:00:00 25 12 Este 22 Este 0 1011.7 1.4 57
2018-09-07 21:00:00 25.3 13 Este 22 Este 0 1010.8 0.8 55
2018-09-07 20:00:00 26.1 10 Este 22 Este 0 1010.4 0.4 50
2018-09-07 19:00:00 26.7 12 Sudeste 25 Sudeste 0 1010.3 0 48
2018-09-07 18:00:00 27 12 Sudeste 24 Sudeste 0 1010 -0.8 53
2018-09-07 17:00:00 27.1 11 Sur 24 Sudeste 0 1010 -1.1 53
2018-09-07 16:00:00 27.8 11 Sur 28 Sudeste 0 1010.3 -1.6 53
2018-09-07 15:00:00 27.3 12 Sudeste 25 Sudeste 0 1010.8 -1.1 57
2018-09-07 14:00:00 27.2 13 Sur 24 Sudeste 0 1011.1 -0.8 58
2018-09-07 13:00:00 27.3 10 Sur 23 Sur 0 1011.9 0.6 55
2018-09-07 12:00:00 27 10 Sur 20 Sudoeste 0 1011.9 1 59
2018-09-07 11:00:00 26.4 9 Sudeste 23 Sur 0 1011.9 1.5 62
2018-09-07 10:00:00 26.1 11 Sur 24 Sudeste 0 1011.3 1.2 65
2018-09-07 09:00:00 25 4 Sudeste 15 Este 0 1010.9 1.3 70
2018-09-07 08:00:00 24.5 8 Este 20 Sudeste 0 1010.4 1.1 70
2018-09-07 07:00:00 24.8 10 Este 21 Este 0 1010.1 0.7 70
2018-09-07 06:00:00 24.7 9 Este 15 Este 0 1009.6 -0.2 71
2018-09-07 05:00:00 24.8 8 Este 14 Este 0 1009.3 -0.4 70
2018-09-07 04:00:00 24.3 7 Este 13 Este 0 1009.4 -0.4 68
2018-09-07 03:00:00 24.4 6 Este 9 Este 0 1009.8 -0.1 71
2018-09-07 02:00:00 24.7 5 Este 10 Este 0 1009.7 -0.4 70
2018-09-07 01:00:00 25.1 5 Sudeste 12 Sur 0 1009.8 0.4 68
2018-09-07 00:00:00 25.3 4 Sur 16 Sur 0 1009.9 1.4 67
2018-09-06 23:00:00 26.2 8 Sur 19 Sur 0 1010.1 1.3 63
2018-09-06 22:00:00 26.8 8 Este 13 Este 0 1009.4 1.9 62
2018-09-06 21:00:00 26.9 4 Este 14 Sur 0 1008.5 1.3 58
2018-09-06 20:00:00 27.9 7 Sudeste 14 Sudeste 0 1008.8 1 53
2018-09-06 19:00:00 29.8 5 Sur 17 Sudoeste 0 1007.5 -0.7 34
2018-09-06 18:00:00 30.5 9 Sur 17 Sur 0 1007.2 -1.3 30
2018-09-06 17:00:00 30 9 Sudoeste 22 Sur 0 1007.8 -0.8 44
2018-09-06 16:00:00 29.6 12 Sudoeste 27 Sudoeste 0 1008.2 -0.7 41
2018-09-06 15:00:00 29.6 13 Sur 24 Sur 0 1008.5 -0.8 43
2018-09-06 14:00:00 29.7 8 Sur 19 Sur 0 1008.6 -0.7 36
2018-09-06 13:00:00 30.1 10 Sur 20 Sudeste 0 1008.9 -0.4 33
2018-09-06 12:00:00 29 10 Sur 18 Sur 0 1009.3 0.5 42
2018-09-06 11:00:00 29 9 Sudeste 19 Sudeste 0 1009.3 0.8 43
2018-09-06 10:00:00 28.2 9 Sudeste 15 Sudeste 0 1009.3 1.3 47
2018-09-06 09:00:00 26.2 6 Este 12 Este 0 1008.8 1.1 47
2018-09-06 08:00:00 22.6 4 Nordeste 9 Nordeste 0 1008.5 0.6 52
2018-09-06 07:00:00 21.9 3 Noroeste 14 Noroeste 0 1008 -0.2 51
2018-09-06 06:00:00 23.4 9 Noroeste 15 Noroeste 0 1007.7 -0.6 44
2018-09-06 05:00:00 23.1 6 Noroeste 12 Noroeste 0 1007.9 -0.6 48
2018-09-06 04:00:00 22.8 3 Norte 11 Nordeste 0 1008.2 -0.5 61
2018-09-06 03:00:00 23.4 5 Nordeste 8 Nordeste 0 1008.3 -0.3 60
2018-09-06 02:00:00 23.4 0 Calma 9 Norte 0 1008.5 0.2 62
2018-09-06 01:00:00 23.1 4 Noroeste 13 Noroeste 0 1008.7 0.6 54
2018-09-06 00:00:00 24.7 4 Norte 19 Este 0 1008.6 1.2 69
2018-09-05 23:00:00 24.8 10 Nordeste 19 Nordeste 0 1008.3 1 70
2018-09-05 22:00:00 25.2 11 Nordeste 18 Nordeste 0 1008.1 0.4 67
2018-09-05 21:00:00 25.7 9 Este 14 Nordeste 0 1007.4 0.2 67
2018-09-05 20:00:00 26.3 9 Sudeste 15 Sudeste 0 1007.3 -1 63
2018-09-05 19:00:00 27.5 7 Sur 21 Sur 0 1007.7 -0.7 57
2018-09-05 18:00:00 27.8 9 Sur 21 Sur 0 1007.2 -2.2 57
2018-09-05 17:00:00 28.5 11 Sur 23 Sudoeste 0 1008.3 -2.1 52
2018-09-05 16:00:00 28.9 11 Sur 26 Sur 0 1008.4 -1.4 53
2018-09-05 15:00:00 28.7 10 Sur 21 Sur 0 1009.4 -1.3 53
2018-09-05 14:00:00 29 9 Sur 21 Sur 0 1010.4 -1 53
2018-09-05 13:00:00 28.4 9 Sur 20 Sudeste 0 1009.8 -0.8 56
2018-09-05 12:00:00 28.5 8 Sur 18 Sudeste 0 1010.7 0.7 54
2018-09-05 11:00:00 27.8 9 Sur 19 Sudoeste 0 1011.4 1.6 57
2018-09-05 10:00:00 27.4 6 Sur 10 Sur 0 1010.6 1.1 58
2018-09-05 09:00:00 26 0 Calma 11 Nordeste 0 1010 0.9 65
2018-09-05 08:00:00 22.5 5 Nordeste 12 Nordeste 0 1009.8 0.9 71
2018-09-05 07:00:00 21.8 5 Noroeste 12 Norte 0 1009.5 0.8 66
2018-09-05 06:00:00 22.4 2 Norte 9 Norte 0 1009.1 0.3 65
2018-09-05 05:00:00 22.2 0 Calma 7 Norte 0 1008.9 -0.1 68
2018-09-05 04:00:00 22.6 4 Noroeste 7 Nordeste 0 1008.7 -0.3 73
2018-09-05 03:00:00 24.2 4 Este 10 Este 0 1008.8 -0.3 71
2018-09-05 02:00:00 24.4 7 Este 12 Nordeste 0 1009 0 70
2018-09-05 01:00:00 24.8 7 Este 12 Nordeste 0 1009 0.5 69
2018-09-05 00:00:00 25.1 7 Nordeste 10 Nordeste 0 1009.1 1.1 71
2018-09-04 23:00:00 25.4 6 Este 9 Este 0 1009 1.7 69
2018-09-04 22:00:00 25.9 4 Sudeste 8 Sur 0 1008.5 0.9 71
2018-09-04 21:00:00 26.2 3 Sudeste 11 Sudeste 0 1008 1.2 67
2018-09-04 20:00:00 26.9 7 Sudeste 12 Sudeste 0 1007.3 0.3 64
2018-09-04 19:00:00 27.7 6 Sur 16 Sudeste 0 1007.6 0.2 61
2018-09-04 18:00:00 28.2 8 Sudeste 21 Sudoeste 0 1006.8 -0.9 64
2018-09-04 17:00:00 28.3 13 Sur 24 Sur 0 1007 -0.2 64
2018-09-04 16:00:00 29.3 15 Sur 27 Sur 0 1007.4 -0.9 59
2018-09-04 15:00:00 29.5 12 Sur 23 Sudeste 0 1007.7 -1.2 60
2018-09-04 14:00:00 29 12 Sudeste 24 Sur 0 1007.2 -1.8 61
2018-09-04 13:00:00 29.4 10 Sur 19 Sudeste 0 1008.3 -0.8 57
2018-09-04 12:00:00 28.6 12 Sur 21 Sur 0 1008.9 0.2 60
2018-09-04 11:00:00 28.5 9 Sur 18 Sur 0 1009 0.5 60
2018-09-04 10:00:00 27.6 4 Sur 9 Sudeste 0 1009.1 1.2 64
2018-09-04 09:00:00 26.4 3 Nordeste 6 Este 0 1008.7 0.8 69
2018-09-04 08:00:00 24 2 Norte 7 Norte 0 1008.5 0.8 75
2018-09-04 07:00:00 24.1 0 Calma 8 Norte 0 1007.9 0.1 74
2018-09-04 06:00:00 24.3 3 Norte 7 Noroeste 0 1007.9 -0.5 73
2018-09-04 05:00:00 24.6 3 Noroeste 8 Norte 0 1007.7 -1.4 72
2018-09-04 04:00:00 24.9 4 Nordeste 8 Nordeste 0 1007.8 -1.6 74
2018-09-04 03:00:00 24.9 5 Noroeste 12 Norte 0 1008.4 -1 72
2018-09-04 02:00:00 25.6 3 Noroeste 10 Noroeste 0 1009.1 -0.3 76
2018-09-04 01:00:00 26.3 4 Nordeste 7 Nordeste 0 1009.4 0.5 76
2018-09-04 00:00:00 26.3 5 Nordeste 10 Este 0 1009.4 1.4 75
2018-09-03 23:00:00 26.5 5 Este 11 Sudeste 0 1009.4 2 74
2018-09-03 22:00:00 26.5 3 Sudeste 10 Sur 0 1008.9 1.5 74
2018-09-03 21:00:00 26.8 5 Sur 12 Sudeste 0 1008 1 72
2018-09-03 20:00:00 27.8 9 Sudeste 17 Sudeste 0 1007.4 -0.5 66
2018-09-03 19:00:00 27.8 9 Sudeste 20 Sudeste 0 1007.4 -0.7 67
2018-09-03 18:00:00 28.5 9 Sudeste 21 Sur 0 1007 -0.9 63
2018-09-03 17:00:00 29.2 9 Sur 22 Sudeste 0 1007.9 -0.2 59
2018-09-03 16:00:00 29.1 13 Sudeste 26 Sur 0 1008.1 -1.1 59
2018-09-03 15:00:00 29.5 12 Sur 21 Sur 0 1007.9 -1.2 52
2018-09-03 14:00:00 28.7 10 Sudeste 19 Sur 0 1008.1 -1.7 60
2018-09-03 13:00:00 28.8 10 Sur 20 Sudeste 0 1009.2 -0.1 60
2018-09-03 12:00:00 28.3 8 Sur 16 Sur 0 1009.1 0.4 62
2018-09-03 11:00:00 27.6 5 Sur 10 Sur 0 1009.8 1.4 65
2018-09-03 10:00:00 27 3 Sudoeste 7 Sudoeste 0 1009.3 1 61
2018-09-03 09:00:00 25.2 3 Norte 9 Norte 0 1008.7 0.5 58
2018-09-03 08:00:00 23.4 4 Norte 13 Norte 0 1008.4 -0.1 60
2018-09-03 07:00:00 23.5 8 Norte 13 Noroeste 0 1008.3 -0.7 56
2018-09-03 06:00:00 22.9 4 Noroeste 11 Noroeste 0 1008.2 -1.1 71
2018-09-03 05:00:00 24.5 5 Norte 8 Nordeste 0 1008.5 -0.8 74
2018-09-03 04:00:00 25.1 5 Norte 12 Nordeste 0 1009 -1.5 73
2018-09-03 03:00:00 25.6 2 Este 9 Este 0 1009.3 -1.6 72
2018-09-03 02:00:00 25.9 4 Nordeste 8 Nordeste 0 1009.3 -1.2 71
2018-09-03 01:00:00 26.2 4 Oeste 14 Sudoeste 0 1010.5 0.1 70
2018-09-03 00:00:00 26.4 4 Sur 9 Sudoeste 0 1010.9 0.9 71
2018-09-02 23:00:00 26.3 3 Este 13 Sudeste 0 1010.5 0.6 71
2018-09-02 22:00:00 26.4 5 Sudeste 14 Sudeste 0 1010.4 0.3 72
2018-09-02 21:00:00 26.4 10 Sudeste 15 Sudeste 0 1010 0 72
2018-09-02 20:00:00 26.8 8 Sudeste 17 Sudeste 0 1009.9 -0.4 69
2018-09-02 19:00:00 27.7 9 Sudeste 17 Sudeste 0 1010.1 -0.9 64
2018-09-02 18:00:00 28.2 8 Sudeste 18 Sur 0 1010 -1.8 62
2018-09-02 17:00:00 28.9 11 Sur 20 Sudeste 0 1010.3 -1.9 59
2018-09-02 16:00:00 29.3 12 Sur 24 Sudeste 0 1011 -2.1 57
2018-09-02 15:00:00 29.3 13 Sudeste 24 Sur 0 1011.8 -1.7 56
2018-09-02 14:00:00 29.1 14 Sudeste 25 Sudeste 0 1012.2 -1.2 55
2018-09-02 13:00:00 29.5 15 Sudeste 25 Sudeste 0 1013.1 -0.5 50
2018-09-02 12:00:00 29.1 16 Sudeste 24 Sudeste 0 1013.5 0.1 50
2018-09-02 11:00:00 28.7 13 Sudeste 19 Sudeste 0 1013.4 0.4 52
2018-09-02 10:00:00 27.8 4 Sudeste 10 Sudeste 0 1013.6 0.8 52
2018-09-02 09:00:00 25.1 2 Noroeste 4 Oeste 0 1013.4 0.7 62
2018-09-02 08:00:00 22.7 0 Calma 6 Nordeste 0 1013 -0.1 69
2018-09-02 07:00:00 22.9 2 Norte 7 Noroeste 0 1012.8 -0.8 71
2018-09-02 06:00:00 23.7 5 Nordeste 9 Nordeste 0 1012.7 -1 67
2018-09-02 05:00:00 23.7 3 Nordeste 5 Norte 0 1013.1 -0.9 71
2018-09-02 04:00:00 24.1 3 Norte 6 Norte 0 1013.6 -0.3 69
2018-09-02 03:00:00 24.7 3 Norte 6 Nordeste 0 1013.7 -0.1 67
2018-09-02 02:00:00 25.5 4 Nordeste 12 Este 0 1014 0.3 65
2018-09-02 01:00:00 25.7 6 Este 13 Este 0 1013.9 0.5 65
2018-09-02 00:00:00 26 6 Este 13 Este 0 1013.8 0.9 67
2018-09-01 23:00:00 26.3 9 Este 15 Este 0 1013.7 1.2 68
2018-09-01 22:00:00 26.4 9 Este 19 Sudeste 0 1013.4 0.8 69
2018-09-01 21:00:00 26.5 9 Este 21 Sudeste 0 1012.9 0.2 69
2018-09-01 20:00:00 27 12 Sudeste 27 Este 0 1012.5 -0.5 66
2018-09-01 19:00:00 28.2 14 Sudeste 30 Sudeste 0 1012.6 -0.9 62
2018-09-01 18:00:00 28.2 19 Sudeste 33 Sudeste 0 1012.7 -1.2 60
2018-09-01 17:00:00 28.7 22 Sudeste 35 Sudeste 0 1013 -1.4 60
2018-09-01 16:00:00 28.9 22 Sudeste 35 Sudeste 0 1013.5 -0.7 56
2018-09-01 15:00:00 29.6 21 Sudeste 38 Sudeste 0 1013.9 -1 52
2018-09-01 14:00:00 29.2 24 Sudeste 38 Sudeste 0 1014.4 -0.7 55
2018-09-01 13:00:00 29.4 22 Sudeste 35 Este 0 1014.2 -0.4 54
2018-09-01 12:00:00 29.9 22 Sudeste 34 Sudeste 0 1014.9 0.6 50
2018-09-01 11:00:00 29.4 17 Este 30 Sudeste 0 1015.1 1.3 51
2018-09-01 10:00:00 28.5 4 Nordeste 11 Oeste 0 1014.6 1.1 52
2018-09-01 09:00:00 26 4 Oeste 6 Oeste 0 1014.3 0.9 60
2018-09-01 08:00:00 23.4 2 Norte 6 Nordeste 0 1013.8 0.3 69
2018-09-01 07:00:00 23.7 3 Norte 8 Nordeste 0 1013.5 0 68
2018-09-01 06:00:00 23.7 2 Norte 7 Noroeste 0 1013.4 -0.4 69
2018-09-01 05:00:00 24.3 4 Nordeste 8 Norte 0 1013.5 -0.4 66
2018-09-01 04:00:00 24.6 3 Nordeste 6 Norte 0 1013.5 -0.5 66
2018-09-01 03:00:00 24.8 4 Norte 9 Nordeste 0 1013.8 -0.1 66
2018-09-01 02:00:00 25.3 5 Este 18 Este 0 1013.9 0.1 67
2018-09-01 01:00:00 25.8 9 Este 17 Este 0 1014 0.5 67
2018-09-01 00:00:00 26.4 8 Este 17 Este 0 1013.9 1.1 67
2018-08-31 23:00:00 26.8 8 Este 19 Sudeste 0 1013.8 1.4 69
2018-08-31 22:00:00 26.7 9 Este 16 Sudeste 0 1013.5 1.3 70
2018-08-31 21:00:00 26.7 10 Este 18 Sudeste 0 1012.8 0.1 68
2018-08-31 20:00:00 26.9 12 Sudeste 21 Sudeste 0 1012.4 -0.9 68
2018-08-31 19:00:00 27.6 13 Sudeste 26 Sudeste 0 1012.2 -1.5 64
2018-08-31 18:00:00 28.2 16 Sudeste 31 Sudeste 0 1012.7 -1.2 64
2018-08-31 17:00:00 28.8 18 Sudeste 32 Sudeste 0 1013.3 -1 61
2018-08-31 16:00:00 29.2 19 Sudeste 31 Sudeste 0 1013.7 0.2 59
2018-08-31 15:00:00 29.1 19 Sudeste 34 Sudeste 0 1013.9 0.1 59
2018-08-31 14:00:00 29.5 22 Sudeste 37 Sudeste 0 1014.3 0.7 58
2018-08-31 13:00:00 29.3 22 Sudeste 36 Este 0 1013.5 -0.1 54
2018-08-31 12:00:00 29.2 23 Sudeste 32 Sudeste 0 1013.8 0 53
2018-08-31 11:00:00 30 15 Este 29 Este 0 1013.6 0.1 49
2018-08-31 10:00:00 28.6 9 Este 20 Este 0 1013.6 0.8 53
2018-08-31 09:00:00 26 2 Sudoeste 9 Nordeste 0 1013.8 1 60
2018-08-31 08:00:00 23.4 3 Norte 7 Noroeste 0 1013.5 0.5 68
2018-08-31 07:00:00 23.7 2 Nordeste 9 Nordeste 0 1012.8 -0.7 67
2018-08-31 06:00:00 23.9 0 Calma 9 Norte 0 1012.8 -1 68
2018-08-31 05:00:00 24.6 4 Nordeste 8 Nordeste 0 1013 -1.3 66
2018-08-31 04:00:00 24.6 2 Norte 5 Noroeste 0 1013.5 -1 67
2018-08-31 03:00:00 25.1 3 Norte 8 Noroeste 0 1013.8 -0.7 66
2018-08-31 02:00:00 25.6 2 Sur 9 Este 0 1014.3 -0.2 67
2018-08-31 01:00:00 26.2 4 Nordeste 12 Este 0 1014.5 0.4 66
2018-08-31 00:00:00 26.5 9 Este 16 Este 0 1014.5 1 64
2018-08-30 23:00:00 26.8 8 Este 19 Este 0 1014.5 1.4 66
2018-08-30 22:00:00 27.1 10 Este 21 Este 0 1014.1 1.4 66
2018-08-30 21:00:00 27.2 12 Este 24 Sudeste 0 1013.5 0.6 69
2018-08-30 20:00:00 28.2 13 Sudeste 26 Este 0 1013.1 -0.1 62
2018-08-30 19:00:00 29.3 17 Este 30 Sudeste 0 1012.7 -1 53
2018-08-30 18:00:00 29.4 17 Sudeste 31 Sudeste 0 1012.9 -0.7 52
2018-08-30 17:00:00 30.2 19 Sudeste 32 Sudeste 0 1013.2 -1.2 46
2018-08-30 16:00:00 30 17 Sudeste 33 Sudeste 0 1013.7 -0.9 46
2018-08-30 15:00:00 29.5 17 Sudeste 35 Sudeste 0 1013.6 -1.3 52
2018-08-30 14:00:00 29.3 19 Sudeste 35 Sudeste 0 1014.4 -0.4 55
2018-08-30 13:00:00 29.5 20 Sudeste 32 Sudeste 0 1014.6 -0.2 51
2018-08-30 12:00:00 30 18 Sudeste 29 Sudeste 0 1014.9 0.5 48
2018-08-30 11:00:00 29.8 13 Este 25 Sudeste 0 1014.8 0.7 48
2018-08-30 10:00:00 28.1 14 Este 24 Este 0 1014.8 1.1 54
2018-08-30 09:00:00 27.2 9 Nordeste 17 Este 0 1014.4 0.6 60
2018-08-30 08:00:00 25.7 3 Nordeste 17 Nordeste 0 1014.1 1.3 66
2018-08-30 07:00:00 25.7 9 Nordeste 16 Nordeste 0 1013.7 1.3 67
2018-08-30 06:00:00 25.6 14 Este 26 Este 0 1013.8 1.7 67
2018-08-30 05:00:00 25.4 8 Este 22 Este 0 1012.8 -0.7 66
2018-08-30 04:00:00 24.9 9 Nordeste 15 Nordeste 0 1012.4 -1.9 74
2018-08-30 03:00:00 25.5 8 Noroeste 12 Noroeste 0 1012.1 -1.8 74
2018-08-30 02:00:00 26.1 3 Sudeste 7 Nordeste 0 1013.5 -0.1 72
2018-08-30 01:00:00 26.4 4 Este 13 Este 0 1014.3 1.2 71
2018-08-30 00:00:00 26.5 7 Sudeste 17 Sudeste 0 1013.9 2 72
2018-08-29 23:00:00 26.4 8 Este 21 Este 0 1013.6 2.4 73
2018-08-29 22:00:00 26.6 11 Este 17 Este 0 1013.1 2.7 71
2018-08-29 21:00:00 27.1 9 Sudeste 14 Sudeste 0 1011.9 1.4 68
2018-08-29 20:00:00 27.7 6 Sur 12 Sudeste 0 1011.2 0.1 66
2018-08-29 19:00:00 28.1 7 Sudoeste 17 Sur 0 1010.4 -1 62
2018-08-29 18:00:00 28.9 8 Sur 21 Sur 0 1010.5 -1.3 60
2018-08-29 17:00:00 29.5 11 Sudoeste 23 Sudoeste 0 1011.1 -1 60
2018-08-29 16:00:00 29.7 12 Sur 24 Sur 0 1011.4 -1.4 58
2018-08-29 15:00:00 29.7 9 Sur 23 Sudeste 0 1011.8 -1.4 58
2018-08-29 14:00:00 29.8 9 Sur 23 Sudeste 0 1012.1 -1.1 59
2018-08-29 13:00:00 29.3 12 Sur 20 Sudeste 0 1012.8 0 59
2018-08-29 12:00:00 29.1 11 Sudeste 20 Sudeste 0 1013.2 0.9 58
2018-08-29 11:00:00 28.6 9 Sur 18 Sudeste 0 1013.2 1.8 58
2018-08-29 10:00:00 29 6 Sur 17 Sudeste 0 1012.8 1.9 51
2018-08-29 09:00:00 27.3 2 Nordeste 10 Este 0 1012.3 1.4 50
2018-08-29 08:00:00 25 7 Este 10 Este 0 1011.4 0.4 52
2018-08-29 07:00:00 23.4 4 Norte 6 Noroeste 0 1010.9 -0.1 46
2018-08-29 06:00:00 23.6 0 Calma 8 Norte 0 1010.9 -0.3 46
2018-08-29 05:00:00 23.9 5 Norte 7 Norte 0 1011 -0.9 44
2018-08-29 04:00:00 24.5 5 Norte 9 Nordeste 0 1011 -0.6 44
2018-08-29 03:00:00 24.4 4 Nordeste 9 Nordeste 0 1011.2 -0.8 45
2018-08-29 02:00:00 24.1 4 Noroeste 8 Noroeste 0 1011.9 -0.4 58
2018-08-29 01:00:00 24.9 4 Noroeste 10 Norte 0 1011.6 -0.6 60
2018-08-29 00:00:00 25.5 5 Noroeste 11 Noroeste 0 1012 0.3 62
2018-08-28 23:00:00 26.5 4 Noroeste 9 Este 0 1012.3 1.1 64
2018-08-28 22:00:00 26.9 5 Este 14 Este 0 1012.2 1.5 65
2018-08-28 21:00:00 27.3 9 Este 23 Este 0 1011.7 0.6 63
2018-08-28 20:00:00 28.1 15 Este 27 Este 0 1011.2 -0.1 60
2018-08-28 19:00:00 29.6 13 Sudeste 33 Sudeste 0 1010.7 -0.9 54
2018-08-28 18:00:00 29.8 19 Sudeste 30 Sudeste 0 1011.1 -1 56
2018-08-28 17:00:00 30.1 18 Sudeste 32 Sudeste 0 1011.3 -1.3 57
2018-08-28 16:00:00 30.4 21 Sudeste 33 Sudeste 0 1011.6 -1.3 58
2018-08-28 15:00:00 31.1 19 Sudeste 33 Sudeste 0 1012.1 -1 54
2018-08-28 14:00:00 31.9 17 Sudeste 27 Sudeste 0 1012.6 -0.1 42
2018-08-28 13:00:00 31.8 16 Sudeste 28 Sudeste 0 1012.9 0.2 42
2018-08-28 12:00:00 30.3 10 Sudeste 18 Este 0 1013.1 0.3 46
2018-08-28 11:00:00 29.1 8 Sudeste 16 Sudeste 0 1012.7 0.6 49
2018-08-28 10:00:00 27.5 2 Norte 21 Oeste 0 1012.7 0.8 53
2018-08-28 09:00:00 26.3 7 Oeste 19 Noroeste 0 1012.8 0.8 49
2018-08-28 08:00:00 25.3 4 Norte 7 Nordeste 0 1012.1 -0.2 44
2018-08-28 07:00:00 25.3 5 Nordeste 12 Nordeste 0 1011.9 -1.3 41
2018-08-28 06:00:00 24.7 4 Norte 9 Nordeste 0 1012 -0.8 49
2018-08-28 05:00:00 25.4 4 Este 13 Nordeste 0 1012.3 -1.2 49
2018-08-28 04:00:00 24.9 8 Noroeste 21 Noroeste 0 1013.2 -1.2 63
2018-08-28 03:00:00 25.4 5 Nordeste 12 Nordeste 0 1012.8 -1.2 68
2018-08-28 02:00:00 26 5 Este 9 Nordeste 0 1013.5 0.2 71
2018-08-28 01:00:00 26.4 3 Noroeste 8 Oeste 0 1014.4 1.9 70
2018-08-28 00:00:00 26.6 3 Norte 10 Este 0 1014 2.7 64
2018-08-27 23:00:00 26.9 6 Nordeste 13 Nordeste 0 1013.3 2.4 68
2018-08-27 22:00:00 27.1 8 Este 21 Este 0 1012.5 1.1 69
2018-08-27 21:00:00 27.3 13 Este 30 Este 0 1011.3 -0.2 66
2018-08-27 20:00:00 28.1 16 Este 30 Este 0 1010.9 -1.1 63
2018-08-27 19:00:00 29.2 21 Este 34 Este 0 1011.4 -0.9 59
2018-08-27 18:00:00 29.4 16 Sudeste 36 Sudeste 0 1011.5 -0.9 60
2018-08-27 17:00:00 29 22 Sudeste 42 Sudeste 0 1012 -0.7 60
2018-08-27 16:00:00 29.2 23 Sudeste 37 Sudeste 0 1012.3 -0.1 60
2018-08-27 15:00:00 29.6 21 Sudeste 39 Sudeste 0 1012.4 -0.2 57
2018-08-27 14:00:00 29.3 21 Sudeste 34 Sudeste 0 1012.7 0.4 59
2018-08-27 13:00:00 29.1 17 Sudeste 32 Sudeste 0 1012.4 0.3 58
2018-08-27 12:00:00 28.9 16 Sudeste 28 Sudeste 0 1012.6 0.5 53
2018-08-27 11:00:00 28.7 13 Sudeste 22 Sudeste 0 1012.3 0.7 55
2018-08-27 10:00:00 28.8 2 Nordeste 7 Nordeste 0 1012.1 1.1 53
2018-08-27 09:00:00 26.4 3 Sur 6 Nordeste 0 1012.1 1.3 67
2018-08-27 08:00:00 24 0 Calma 6 Este 0 1011.6 0.9 73
2018-08-27 07:00:00 24.2 2 Norte 5 Norte 0 1011 -0.1 73
2018-08-27 06:00:00 24.3 3 Noroeste 8 Nordeste 0 1010.8 -0.3 73
2018-08-27 05:00:00 24.9 4 Nordeste 7 Nordeste 0 1010.7 -0.6 71
2018-08-27 04:00:00 25.4 3 Nordeste 6 Nordeste 0 1011.1 -0.4 70
2018-08-27 03:00:00 25.4 3 Norte 6 Nordeste 0 1011.1 -0.3 71
2018-08-27 02:00:00 26 4 Nordeste 8 Nordeste 0 1011.3 0 71
2018-08-27 01:00:00 26.2 4 Este 7 Este 0 1011.5 0.5 71
2018-08-27 00:00:00 26.3 4 Este 8 Sudeste 0 1011.4 1 71
2018-08-26 23:00:00 26.5 6 Este 13 Sudeste 0 1011.3 1.1 68
2018-08-26 22:00:00 26.9 8 Este 14 Sudeste 0 1011 0.6 67
2018-08-26 21:00:00 27 8 Sudeste 15 Sudeste 0 1010.4 0.7 68
2018-08-26 20:00:00 27.3 10 Sudeste 21 Sudeste 0 1010.2 0.3 66
2018-08-26 19:00:00 28 12 Sudeste 26 Sudeste 0 1010.4 0.2 64
2018-08-26 18:00:00 28.8 15 Sudeste 27 Este 0 1009.7 -1 61
2018-08-26 17:00:00 29.7 17 Sudeste 30 Sudeste 0 1009.9 -1.1 56
2018-08-26 16:00:00 29.7 16 Sudeste 30 Este 0 1010.2 -1 55
2018-08-26 15:00:00 30 19 Sudeste 34 Sudeste 0 1010.7 -0.8 59
2018-08-26 14:00:00 29.7 21 Sudeste 36 Sudeste 0 1011 -0.7 58
2018-08-26 13:00:00 30.5 21 Sudeste 37 Sudeste 0 1011.2 -0.2 52
2018-08-26 12:00:00 31.9 16 Este 33 Este 0 1011.5 0.2 45
2018-08-26 11:00:00 30.7 11 Este 26 Este 0 1011.7 0.8 49
2018-08-26 10:00:00 29.2 10 Este 21 Este 0 1011.4 1.3 53
2018-08-26 09:00:00 27.1 3 Norte 8 Norte 0 1011.3 1.2 60
2018-08-26 08:00:00 24.6 2 Noroeste 7 Nordeste 0 1010.9 1.1 69
2018-08-26 07:00:00 25.4 5 Este 9 Este 0 1010.1 0.2 68
2018-08-26 06:00:00 25.2 4 Norte 14 Nordeste 0 1010.1 0.5 67
2018-08-26 05:00:00 25.5 3 Este 13 Nordeste 0 1009.8 0.1 65
2018-08-26 04:00:00 25.5 5 Este 12 Este 0 1009.9 0.4 66
2018-08-26 03:00:00 25.7 5 Este 9 Este 0 1009.6 0.3 60
2018-08-26 02:00:00 26.1 5 Nordeste 9 Nordeste 0 1009.7 0.6 61
2018-08-26 01:00:00 26 5 Nordeste 8 Nordeste 0 1009.5 1 62
2018-08-26 00:00:00 26.5 3 Norte 7 Nordeste 0 1009.3 1.3 61
2018-08-25 23:00:00 26.7 4 Este 8 Este 0 1009.1 0.9 61
2018-08-25 22:00:00 26.9 4 Sudeste 9 Sudeste 0 1008.5 1 62
2018-08-25 21:00:00 27.4 4 Sudeste 14 Sudeste 0 1008 0.3 60
2018-08-25 20:00:00 28.4 8 Sudeste 17 Sur 0 1008.2 -0.1 54
2018-08-25 19:00:00 29.4 10 Sudeste 19 Sudeste 0 1007.5 -1.2 45
2018-08-25 18:00:00 29.9 9 Sudeste 20 Sudeste 0 1007.7 -1.7 46
2018-08-25 17:00:00 29.6 11 Sur 22 Sudeste 0 1008.3 -1.5 54
2018-08-25 16:00:00 30 12 Sur 21 Sudeste 0 1008.7 -1.5 51
2018-08-25 15:00:00 30 13 Sur 27 Sur 0 1009.4 -1 49
2018-08-25 14:00:00 29.7 12 Sur 28 Sudeste 0 1009.8 -0.6 51
2018-08-25 13:00:00 30.1 16 Sudeste 30 Sudeste 0 1010.2 -0.8 53
2018-08-25 12:00:00 30.6 16 Sudeste 26 Sudeste 0 1010.4 0 53
2018-08-25 11:00:00 31.1 12 Este 20 Sudeste 0 1010.4 0.5 46
2018-08-25 10:00:00 28.8 4 Sudeste 17 Sudeste 0 1011 1.5 61
2018-08-25 09:00:00 26.6 4 Este 7 Este 0 1010.4 1.1 69
2018-08-25 08:00:00 24.3 0 Calma 8 Nordeste 0 1009.9 0.3 68
2018-08-25 07:00:00 25.1 6 Nordeste 9 Nordeste 0 1009.5 -0.5 68
2018-08-25 06:00:00 24 3 Norte 5 Nordeste 0 1009.3 -0.9 64
2018-08-25 05:00:00 24.4 0 Calma 8 Norte 0 1009.6 -1.1 66
2018-08-25 04:00:00 24.7 4 Norte 7 Nordeste 0 1010 -0.9 64
2018-08-25 03:00:00 25.5 4 Nordeste 12 Nordeste 0 1010.2 -0.8 64
2018-08-25 02:00:00 25.7 6 Nordeste 10 Nordeste 0 1010.7 -0.5 61
2018-08-25 01:00:00 26.2 5 Nordeste 9 Nordeste 0 1010.9 -0.4 62
2018-08-25 00:00:00 26.3 3 Nordeste 5 Nordeste 0 1011 -0.1 61